sensor_id;sensor_type;location;lat;lon;timestamp;pressure;altitude;pressure_sealevel;temperature;humidity
75008;BME280;63554;48.940;12.050;2023-06-22T00:01:24;97569.78;;;17.41;90.37
75008;BME280;63554;48.940;12.050;2023-06-22T00:05:27;97555.53;;;17.39;90.41
75008;BME280;63554;48.940;12.050;2023-06-22T00:09:30;97544.84;;;17.37;90.49
75008;BME280;63554;48.940;12.050;2023-06-22T00:13:34;97548.94;;;17.35;90.72
75008;BME280;63554;48.940;12.050;2023-06-22T00:17:38;97534.13;;;17.31;90.99
75008;BME280;63554;48.940;12.050;2023-06-22T00:21:40;97524.25;;;17.30;90.97
75008;BME280;63554;48.940;12.050;2023-06-22T00:25:43;97508.41;;;17.32;91.02
75008;BME280;63554;48.940;12.050;2023-06-22T00:29:54;97496.09;;;17.29;91.07
75008;BME280;63554;48.940;12.050;2023-06-22T00:34:04;97499.06;;;17.28;90.24
75008;BME280;63554;48.940;12.050;2023-06-22T00:38:08;97492.38;;;17.13;90.49
75008;BME280;63554;48.940;12.050;2023-06-22T00:42:11;97494.22;;;17.08;91.06
75008;BME280;63554;48.940;12.050;2023-06-22T00:46:13;97479.94;;;17.00;91.02
75008;BME280;63554;48.940;12.050;2023-06-22T00:50:22;97496.66;;;17.04;92.52
75008;BME280;63554;48.940;12.050;2023-06-22T00:54:25;97499.13;;;17.06;92.52
75008;BME280;63554;48.940;12.050;2023-06-22T00:58:28;97496.66;;;17.04;92.65
75008;BME280;63554;48.940;12.050;2023-06-22T01:02:32;97498.81;;;17.02;92.90
75008;BME280;63554;48.940;12.050;2023-06-22T01:06:41;97490.09;;;17.05;93.18
75008;BME280;63554;48.940;12.050;2023-06-22T01:10:51;97505.69;;;17.05;93.79
75008;BME280;63554;48.940;12.050;2023-06-22T01:15:01;97511.38;;;16.98;93.52
75008;BME280;63554;48.940;12.050;2023-06-22T01:19:13;97496.81;;;16.92;93.83
75008;BME280;63554;48.940;12.050;2023-06-22T01:23:54;97490.44;;;16.87;93.88
75008;BME280;63554;48.940;12.050;2023-06-22T01:32:43;97502.78;;;16.89;95.04
75008;BME280;63554;48.940;12.050;2023-06-22T01:36:46;97495.66;;;16.88;95.21
75008;BME280;63554;48.940;12.050;2023-06-22T01:40:52;97486.09;;;16.86;94.77
75008;BME280;63554;48.940;12.050;2023-06-22T01:44:59;97481.34;;;16.81;95.08
75008;BME280;63554;48.940;12.050;2023-06-22T01:49:04;97491.22;;;16.82;96.27
75008;BME280;63554;48.940;12.050;2023-06-22T01:53:08;97502.63;;;16.79;96.46
75008;BME280;63554;48.940;12.050;2023-06-22T01:57:11;97517.66;;;16.76;96.90
75008;BME280;63554;48.940;12.050;2023-06-22T02:01:20;97524.63;;;16.67;97.43
75008;BME280;63554;48.940;12.050;2023-06-22T02:05:26;97522.94;;;16.61;98.26
75008;BME280;63554;48.940;12.050;2023-06-22T02:09:35;97507.34;;;16.61;98.81
75008;BME280;63554;48.940;12.050;2023-06-22T02:13:38;97512.56;;;16.63;99.08
75008;BME280;63554;48.940;12.050;2023-06-22T02:17:44;97512.63;;;16.68;99.72
75008;BME280;63554;48.940;12.050;2023-06-22T02:21:48;97515.41;;;16.73;99.60
75008;BME280;63554;48.940;12.050;2023-06-22T02:25:51;97515.47;;;16.78;99.92
75008;BME280;63554;48.940;12.050;2023-06-22T02:29:53;97521.53;;;16.80;99.33
75008;BME280;63554;48.940;12.050;2023-06-22T02:33:57;97512.19;;;16.76;98.96
75008;BME280;63554;48.940;12.050;2023-06-22T02:38:03;97511.09;;;16.77;98.98
75008;BME280;63554;48.940;12.050;2023-06-22T02:42:07;97491.13;;;16.77;99.63
75008;BME280;63554;48.940;12.050;2023-06-22T02:46:12;97492.28;;;16.81;100.00
75008;BME280;63554;48.940;12.050;2023-06-22T02:50:15;97482.94;;;16.77;100.00
75008;BME280;63554;48.940;12.050;2023-06-22T02:54:19;97486.13;;;16.69;100.00
75008;BME280;63554;48.940;12.050;2023-06-22T02:58:22;97491.28;;;16.65;100.00
75008;BME280;63554;48.940;12.050;2023-06-22T03:02:25;97482.19;;;16.59;100.00
75008;BME280;63554;48.940;12.050;2023-06-22T03:06:29;97488.47;;;16.60;100.00
75008;BME280;63554;48.940;12.050;2023-06-22T03:10:33;97493.94;;;16.60;100.00
75008;BME280;63554;48.940;12.050;2023-06-22T03:14:35;97496.75;;;16.65;100.00
75008;BME280;63554;48.940;12.050;2023-06-22T03:18:38;97492.94;;;16.66;100.00
75008;BME280;63554;48.940;12.050;2023-06-22T03:22:41;97481.81;;;16.73;100.00
75008;BME280;63554;48.940;12.050;2023-06-22T03:26:46;97480.44;;;16.75;100.00
75008;BME280;63554;48.940;12.050;2023-06-22T03:30:49;97476.97;;;16.80;100.00
75008;BME280;63554;48.940;12.050;2023-06-22T03:34:52;97472.91;;;16.83;100.00
75008;BME280;63554;48.940;12.050;2023-06-22T03:38:55;97477.59;;;16.87;100.00
75008;BME280;63554;48.940;12.050;2023-06-22T03:43:02;97479.59;;;16.92;100.00
75008;BME280;63554;48.940;12.050;2023-06-22T03:47:05;97479.69;;;17.02;100.00
75008;BME280;63554;48.940;12.050;2023-06-22T03:51:08;97484.94;;;17.09;100.00
75008;BME280;63554;48.940;12.050;2023-06-22T03:55:12;97496.91;;;17.03;99.06
75008;BME280;63554;48.940;12.050;2023-06-22T03:59:18;97494.81;;;17.10;99.35
75008;BME280;63554;48.940;12.050;2023-06-22T04:03:21;97506.06;;;17.13;98.30
75008;BME280;63554;48.940;12.050;2023-06-22T04:07:24;97495.22;;;17.24;98.05
75008;BME280;63554;48.940;12.050;2023-06-22T04:11:26;97496.41;;;17.33;97.69
75008;BME280;63554;48.940;12.050;2023-06-22T04:15:31;97499.78;;;17.45;96.36
75008;BME280;63554;48.940;12.050;2023-06-22T04:19:37;97517.50;;;17.37;97.12
75008;BME280;63554;48.940;12.050;2023-06-22T04:23:40;97511.25;;;17.15;94.99
75008;BME280;63554;48.940;12.050;2023-06-22T04:27:46;97512.66;;;16.90;96.86
75008;BME280;63554;48.940;12.050;2023-06-22T04:31:53;97512.19;;;16.76;98.01
75008;BME280;63554;48.940;12.050;2023-06-22T04:35:58;97508.56;;;16.71;98.88
75008;BME280;63554;48.940;12.050;2023-06-22T04:40:04;97499.22;;;16.67;100.00
75008;BME280;63554;48.940;12.050;2023-06-22T04:44:09;97491.03;;;16.67;100.00
75008;BME280;63554;48.940;12.050;2023-06-22T04:48:13;97487.97;;;16.63;100.00
75008;BME280;63554;48.940;12.050;2023-06-22T04:52:17;97484.78;;;16.71;100.00
75008;BME280;63554;48.940;12.050;2023-06-22T04:56:21;97494.84;;;16.88;100.00
75008;BME280;63554;48.940;12.050;2023-06-22T05:00:30;97496.34;;;17.00;99.84
75008;BME280;63554;48.940;12.050;2023-06-22T05:04:35;97499.75;;;17.13;99.60
75008;BME280;63554;48.940;12.050;2023-06-22T05:08:41;97499.84;;;17.23;98.87
75008;BME280;63554;48.940;12.050;2023-06-22T05:12:43;97495.59;;;17.37;98.45
75008;BME280;63554;48.940;12.050;2023-06-22T05:16:46;97494.06;;;17.47;97.79
75008;BME280;63554;48.940;12.050;2023-06-22T05:20:50;97493.03;;;17.58;97.16
75008;BME280;63554;48.940;12.050;2023-06-22T05:24:53;97489.81;;;17.66;96.69
75008;BME280;63554;48.940;12.050;2023-06-22T05:28:57;97492.91;;;17.75;96.40
75008;BME280;63554;48.940;12.050;2023-06-22T05:33:00;97476.56;;;17.85;96.58
75008;BME280;63554;48.940;12.050;2023-06-22T05:37:05;97476.66;;;18.01;95.96
75008;BME280;63554;48.940;12.050;2023-06-22T05:41:11;97478.63;;;18.10;94.77
75008;BME280;63554;48.940;12.050;2023-06-22T05:45:15;97484.97;;;18.16;94.75
75008;BME280;63554;48.940;12.050;2023-06-22T05:49:18;97472.69;;;18.24;94.40
75008;BME280;63554;48.940;12.050;2023-06-22T05:53:22;97482.28;;;18.26;94.00
75008;BME280;63554;48.940;12.050;2023-06-22T05:57:24;97465.31;;;18.34;93.71
75008;BME280;63554;48.940;12.050;2023-06-22T06:01:27;97459.91;;;18.50;93.91
75008;BME280;63554;48.940;12.050;2023-06-22T06:05:30;97458.34;;;18.69;93.62
75008;BME280;63554;48.940;12.050;2023-06-22T06:09:34;97460.34;;;18.89;92.85
75008;BME280;63554;48.940;12.050;2023-06-22T06:13:37;97459.56;;;19.04;91.82
75008;BME280;63554;48.940;12.050;2023-06-22T06:17:45;97457.66;;;19.20;90.95
75008;BME280;63554;48.940;12.050;2023-06-22T06:21:49;97447.50;;;19.36;90.33
75008;BME280;63554;48.940;12.050;2023-06-22T06:25:53;97444.78;;;19.56;89.68
75008;BME280;63554;48.940;12.050;2023-06-22T06:29:56;97442.84;;;19.78;88.62
75008;BME280;63554;48.940;12.050;2023-06-22T06:33:59;97440.88;;;20.04;87.88
75008;BME280;63554;48.940;12.050;2023-06-22T06:38:02;97433.63;;;20.33;86.74
75008;BME280;63554;48.940;12.050;2023-06-22T06:42:06;97417.56;;;20.56;84.99
75008;BME280;63554;48.940;12.050;2023-06-22T06:46:09;97433.38;;;20.90;83.60
75008;BME280;63554;48.940;12.050;2023-06-22T06:50:12;97422.69;;;21.23;82.53
75008;BME280;63554;48.940;12.050;2023-06-22T06:54:15;97426.63;;;21.51;81.34
75008;BME280;63554;48.940;12.050;2023-06-22T06:58:18;97428.97;;;21.68;78.98
75008;BME280;63554;48.940;12.050;2023-06-22T07:02:21;97422.19;;;21.84;74.03
75008;BME280;63554;48.940;12.050;2023-06-22T07:06:24;97418.63;;;22.08;73.90
75008;BME280;63554;48.940;12.050;2023-06-22T07:10:30;97412.31;;;22.31;72.42
75008;BME280;63554;48.940;12.050;2023-06-22T07:14:35;97403.19;;;22.55;69.49
75008;BME280;63554;48.940;12.050;2023-06-22T07:18:39;97410.41;;;22.89;70.29
75008;BME280;63554;48.940;12.050;2023-06-22T07:22:43;97410.47;;;23.08;69.31
75008;BME280;63554;48.940;12.050;2023-06-22T07:26:46;97400.91;;;23.19;65.83
75008;BME280;63554;48.940;12.050;2023-06-22T07:30:50;97401.81;;;23.47;65.77
75008;BME280;63554;48.940;12.050;2023-06-22T07:34:53;97399.09;;;23.75;63.30
75008;BME280;63554;48.940;12.050;2023-06-22T07:38:56;97391.19;;;24.01;63.97
75008;BME280;63554;48.940;12.050;2023-06-22T07:42:58;97393.97;;;24.15;62.57
75008;BME280;63554;48.940;12.050;2023-06-22T07:47:03;97386.97;;;24.32;62.14
75008;BME280;63554;48.940;12.050;2023-06-22T07:51:06;97382.38;;;24.55;61.63
75008;BME280;63554;48.940;12.050;2023-06-22T07:55:09;97381.22;;;24.70;62.62
75008;BME280;63554;48.940;12.050;2023-06-22T07:59:11;97377.53;;;24.97;61.39
75008;BME280;63554;48.940;12.050;2023-06-22T08:03:15;97390.28;;;24.98;61.75
75008;BME280;63554;48.940;12.050;2023-06-22T08:07:19;97378.19;;;25.16;60.32
75008;BME280;63554;48.940;12.050;2023-06-22T08:11:21;97387.25;;;25.44;58.70
75008;BME280;63554;48.940;12.050;2023-06-22T08:15:26;97374.50;;;25.66;58.16
75008;BME280;63554;48.940;12.050;2023-06-22T08:19:31;97379.97;;;25.89;56.80
75008;BME280;63554;48.940;12.050;2023-06-22T08:23:34;97378.28;;;26.01;57.26
75008;BME280;63554;48.940;12.050;2023-06-22T08:27:37;97368.50;;;26.04;56.14
75008;BME280;63554;48.940;12.050;2023-06-22T08:31:40;97367.69;;;26.12;56.59
75008;BME280;63554;48.940;12.050;2023-06-22T08:35:44;97365.97;;;26.34;55.90
75008;BME280;63554;48.940;12.050;2023-06-22T08:39:46;97367.97;;;26.51;57.01
75008;BME280;63554;48.940;12.050;2023-06-22T08:43:49;97372.28;;;26.74;55.46
75008;BME280;63554;48.940;12.050;2023-06-22T08:47:52;97370.50;;;26.78;54.74
75008;BME280;63554;48.940;12.050;2023-06-22T08:51:56;97372.13;;;26.71;54.49
75008;BME280;63554;48.940;12.050;2023-06-22T08:55:59;97361.00;;;26.79;55.90
75008;BME280;63554;48.940;12.050;2023-06-22T09:00:03;97362.00;;;26.92;54.31
75008;BME280;63554;48.940;12.050;2023-06-22T09:04:08;97358.06;;;27.11;55.37
75008;BME280;63554;48.940;12.050;2023-06-22T09:08:13;97367.75;;;27.31;53.94
75008;BME280;63554;48.940;12.050;2023-06-22T09:12:16;97368.22;;;27.41;54.34
75008;BME280;63554;48.940;12.050;2023-06-22T09:16:18;97368.69;;;27.52;54.32
75008;BME280;63554;48.940;12.050;2023-06-22T09:20:21;97355.25;;;27.63;52.10
75008;BME280;63554;48.940;12.050;2023-06-22T09:24:26;97352.56;;;27.75;53.07
75008;BME280;63554;48.940;12.050;2023-06-22T09:28:28;97344.19;;;28.02;52.61
75008;BME280;63554;48.940;12.050;2023-06-22T09:32:31;97346.50;;;28.29;52.35
75008;BME280;63554;48.940;12.050;2023-06-22T09:36:34;97341.56;;;28.35;50.01
75008;BME280;63554;48.940;12.050;2023-06-22T09:40:39;97338.69;;;28.52;51.33
75008;BME280;63554;48.940;12.050;2023-06-22T09:44:42;97345.88;;;28.53;50.42
75008;BME280;63554;48.940;12.050;2023-06-22T09:48:44;97346.03;;;28.78;51.57
75008;BME280;63554;48.940;12.050;2023-06-22T09:52:47;97331.50;;;28.93;50.20
75008;BME280;63554;48.940;12.050;2023-06-22T09:56:58;97333.75;;;29.21;49.95
75008;BME280;63554;48.940;12.050;2023-06-22T10:01:00;97333.03;;;29.24;48.82
75008;BME280;63554;48.940;12.050;2023-06-22T10:05:04;97334.03;;;29.41;51.51
75008;BME280;63554;48.940;12.050;2023-06-22T10:09:07;97318.47;;;29.52;48.48
75008;BME280;63554;48.940;12.050;2023-06-22T10:13:11;97314.16;;;29.42;48.37
75008;BME280;63554;48.940;12.050;2023-06-22T10:17:14;97318.13;;;29.41;47.75
75008;BME280;63554;48.940;12.050;2023-06-22T10:21:17;97312.22;;;29.55;46.34
75008;BME280;63554;48.940;12.050;2023-06-22T10:25:21;97309.91;;;29.69;46.83
75008;BME280;63554;48.940;12.050;2023-06-22T10:29:26;97309.41;;;29.88;47.61
75008;BME280;63554;48.940;12.050;2023-06-22T10:33:28;97303.69;;;29.97;45.49
75008;BME280;63554;48.940;12.050;2023-06-22T10:37:31;97282.66;;;29.87;46.60
75008;BME280;63554;48.940;12.050;2023-06-22T10:41:34;97286.38;;;30.04;45.34
75008;BME280;63554;48.940;12.050;2023-06-22T10:45:39;97287.88;;;30.13;44.97
75008;BME280;63554;48.940;12.050;2023-06-22T10:49:41;97282.09;;;30.31;46.57
75008;BME280;63554;48.940;12.050;2023-06-22T10:53:44;97277.63;;;30.42;45.26
75008;BME280;63554;48.940;12.050;2023-06-22T10:57:47;97259.28;;;30.69;44.59
75008;BME280;63554;48.940;12.050;2023-06-22T11:01:51;97257.38;;;30.86;44.76
75008;BME280;63554;48.940;12.050;2023-06-22T11:05:53;97254.91;;;30.97;43.99
75008;BME280;63554;48.940;12.050;2023-06-22T11:09:56;97244.94;;;31.11;43.78
75008;BME280;63554;48.940;12.050;2023-06-22T11:13:59;97246.09;;;31.10;43.33
75008;BME280;63554;48.940;12.050;2023-06-22T11:18:04;97242.69;;;31.01;43.14
75008;BME280;63554;48.940;12.050;2023-06-22T11:22:08;97239.06;;;31.17;43.49
75008;BME280;63554;48.940;12.050;2023-06-22T11:26:11;97241.19;;;31.36;43.16
75008;BME280;63554;48.940;12.050;2023-06-22T11:30:14;97233.56;;;31.48;43.20
75008;BME280;63554;48.940;12.050;2023-06-22T11:34:19;97239.72;;;31.26;44.33
75008;BME280;63554;48.940;12.050;2023-06-22T11:38:21;97238.69;;;30.74;45.54
75008;BME280;63554;48.940;12.050;2023-06-22T11:42:24;97232.28;;;30.08;45.72
75008;BME280;63554;48.940;12.050;2023-06-22T11:46:27;97226.13;;;30.03;47.27
75008;BME280;63554;48.940;12.050;2023-06-22T11:50:31;97215.59;;;30.77;45.08
75008;BME280;63554;48.940;12.050;2023-06-22T11:54:37;97212.09;;;31.52;45.17
75008;BME280;63554;48.940;12.050;2023-06-22T11:58:40;97208.28;;;31.77;42.93
75008;BME280;63554;48.940;12.050;2023-06-22T12:02:43;97205.00;;;31.90;42.38
75008;BME280;63554;48.940;12.050;2023-06-22T12:06:49;97201.41;;;31.90;42.83
75008;BME280;63554;48.940;12.050;2023-06-22T12:10:52;97192.78;;;31.99;42.75
75008;BME280;63554;48.940;12.050;2023-06-22T12:14:55;97183.88;;;32.28;43.82
75008;BME280;63554;48.940;12.050;2023-06-22T12:18:58;97178.50;;;32.39;42.76
75008;BME280;63554;48.940;12.050;2023-06-22T12:23:02;97178.44;;;32.55;42.05
75008;BME280;63554;48.940;12.050;2023-06-22T12:27:05;97174.09;;;32.58;42.36
75008;BME280;63554;48.940;12.050;2023-06-22T12:31:08;97163.97;;;32.14;42.88
75008;BME280;63554;48.940;12.050;2023-06-22T12:35:11;97164.88;;;31.19;43.82
75008;BME280;63554;48.940;12.050;2023-06-22T12:39:17;97159.44;;;31.74;44.39
75008;BME280;63554;48.940;12.050;2023-06-22T12:43:19;97157.44;;;32.45;42.11
75008;BME280;63554;48.940;12.050;2023-06-22T12:47:22;97156.94;;;32.59;40.90
75008;BME280;63554;48.940;12.050;2023-06-22T12:51:25;97145.78;;;32.63;41.36
75008;BME280;63554;48.940;12.050;2023-06-22T12:55:29;97140.69;;;31.94;42.86
75008;BME280;63554;48.940;12.050;2023-06-22T12:59:31;97146.38;;;31.30;43.71
75008;BME280;63554;48.940;12.050;2023-06-22T13:03:34;97138.69;;;31.27;43.67
75008;BME280;63554;48.940;12.050;2023-06-22T13:07:37;97144.28;;;31.27;45.48
75008;BME280;63554;48.940;12.050;2023-06-22T13:11:41;97137.72;;;31.20;45.21
75008;BME280;63554;48.940;12.050;2023-06-22T13:15:44;97130.84;;;31.33;46.66
75008;BME280;63554;48.940;12.050;2023-06-22T13:19:46;97129.91;;;31.77;45.66
75008;BME280;63554;48.940;12.050;2023-06-22T13:23:49;97130.84;;;32.00;44.97
75008;BME280;63554;48.940;12.050;2023-06-22T13:27:53;97126.00;;;32.17;43.13
75008;BME280;63554;48.940;12.050;2023-06-22T13:31:56;97105.06;;;32.10;44.09
75008;BME280;63554;48.940;12.050;2023-06-22T13:35:59;97102.03;;;32.78;43.18
75008;BME280;63554;48.940;12.050;2023-06-22T13:40:05;97096.56;;;32.62;43.01
75008;BME280;63554;48.940;12.050;2023-06-22T13:44:10;97074.50;;;33.06;42.14
75008;BME280;63554;48.940;12.050;2023-06-22T13:48:12;97081.31;;;33.28;40.34
75008;BME280;63554;48.940;12.050;2023-06-22T13:52:15;97087.66;;;33.25;41.29
75008;BME280;63554;48.940;12.050;2023-06-22T13:56:18;97090.47;;;33.25;41.07
75008;BME280;63554;48.940;12.050;2023-06-22T14:00:22;97079.91;;;32.73;41.71
75008;BME280;63554;48.940;12.050;2023-06-22T14:04:24;97073.72;;;32.63;41.47
75008;BME280;63554;48.940;12.050;2023-06-22T14:08:28;97061.66;;;32.01;44.27
75008;BME280;63554;48.940;12.050;2023-06-22T14:12:33;97051.50;;;31.57;44.39
75008;BME280;63554;48.940;12.050;2023-06-22T14:16:37;97060.94;;;31.49;43.50
75008;BME280;63554;48.940;12.050;2023-06-22T14:20:40;97069.94;;;31.26;43.49
75008;BME280;63554;48.940;12.050;2023-06-22T14:24:43;97057.31;;;31.48;43.84
75008;BME280;63554;48.940;12.050;2023-06-22T14:28:45;97059.69;;;32.21;41.72
75008;BME280;63554;48.940;12.050;2023-06-22T14:32:51;97057.31;;;32.62;41.77
75008;BME280;63554;48.940;12.050;2023-06-22T14:36:54;97060.28;;;32.73;41.61
75008;BME280;63554;48.940;12.050;2023-06-22T14:40:56;97059.91;;;33.20;39.74
75008;BME280;63554;48.940;12.050;2023-06-22T14:45:14;97052.19;;;33.37;38.61
75008;BME280;63554;48.940;12.050;2023-06-22T14:49:19;97051.28;;;33.59;38.18
75008;BME280;63554;48.940;12.050;2023-06-22T14:53:23;97050.13;;;33.60;36.47
75008;BME280;63554;48.940;12.050;2023-06-22T14:57:25;97044.63;;;33.67;37.13
75008;BME280;63554;48.940;12.050;2023-06-22T15:01:28;97038.22;;;34.01;37.40
75008;BME280;63554;48.940;12.050;2023-06-22T15:05:32;97029.56;;;34.13;35.97
75008;BME280;63554;48.940;12.050;2023-06-22T15:09:35;97012.47;;;33.92;36.20
75008;BME280;63554;48.940;12.050;2023-06-22T15:13:41;96993.38;;;34.08;37.87
75008;BME280;63554;48.940;12.050;2023-06-22T15:17:43;96984.47;;;34.36;35.99
75008;BME280;63554;48.940;12.050;2023-06-22T15:21:47;96988.00;;;34.26;37.60
75008;BME280;63554;48.940;12.050;2023-06-22T15:25:50;96982.88;;;34.01;36.87
75008;BME280;63554;48.940;12.050;2023-06-22T15:29:53;96974.44;;;34.35;35.71
75008;BME280;63554;48.940;12.050;2023-06-22T15:33:56;96953.13;;;34.72;35.08
75008;BME280;63554;48.940;12.050;2023-06-22T15:38:00;96941.97;;;34.82;34.85
75008;BME280;63554;48.940;12.050;2023-06-22T15:42:04;96931.78;;;34.67;34.45
75008;BME280;63554;48.940;12.050;2023-06-22T15:46:07;96919.50;;;34.41;35.54
75008;BME280;63554;48.940;12.050;2023-06-22T15:50:10;96917.53;;;34.45;35.24
75008;BME280;63554;48.940;12.050;2023-06-22T15:54:14;96912.16;;;34.30;35.32
75008;BME280;63554;48.940;12.050;2023-06-22T15:58:17;96904.56;;;34.34;35.16
75008;BME280;63554;48.940;12.050;2023-06-22T16:02:20;96886.69;;;34.12;35.47
75008;BME280;63554;48.940;12.050;2023-06-22T16:06:23;96896.63;;;34.02;36.01
75008;BME280;63554;48.940;12.050;2023-06-22T16:10:27;96890.78;;;34.18;35.19
75008;BME280;63554;48.940;12.050;2023-06-22T16:14:31;96882.03;;;34.23;35.14
75008;BME280;63554;48.940;12.050;2023-06-22T16:18:34;96876.41;;;34.23;35.13
75008;BME280;63554;48.940;12.050;2023-06-22T16:22:36;96863.59;;;34.29;36.57
75008;BME280;63554;48.940;12.050;2023-06-22T16:26:42;96856.31;;;34.24;36.55
75008;BME280;63554;48.940;12.050;2023-06-22T16:30:44;96856.88;;;34.00;35.46
75008;BME280;63554;48.940;12.050;2023-06-22T16:34:47;96846.09;;;33.64;36.44
75008;BME280;63554;48.940;12.050;2023-06-22T16:38:50;96854.63;;;33.41;36.79
75008;BME280;63554;48.940;12.050;2023-06-22T16:42:54;96834.31;;;33.18;37.56
75008;BME280;63554;48.940;12.050;2023-06-22T16:46:57;96840.63;;;33.11;39.04
75008;BME280;63554;48.940;12.050;2023-06-22T16:51:01;96829.97;;;32.94;38.22
75008;BME280;63554;48.940;12.050;2023-06-22T16:55:05;96830.91;;;32.75;38.89
75008;BME280;63554;48.940;12.050;2023-06-22T16:59:09;96825.53;;;32.93;39.15
75008;BME280;63554;48.940;12.050;2023-06-22T17:03:16;96814.38;;;32.96;39.00
75008;BME280;63554;48.940;12.050;2023-06-22T17:07:25;96811.88;;;32.91;38.57
75008;BME280;63554;48.940;12.050;2023-06-22T17:11:28;96802.81;;;32.71;39.82
75008;BME280;63554;48.940;12.050;2023-06-22T17:15:33;96783.94;;;32.41;40.60
75008;BME280;63554;48.940;12.050;2023-06-22T17:19:37;96748.19;;;32.31;41.58
75008;BME280;63554;48.940;12.050;2023-06-22T17:23:40;96757.88;;;32.37;41.48
75008;BME280;63554;48.940;12.050;2023-06-22T17:27:46;96798.31;;;32.40;41.75
75008;BME280;63554;48.940;12.050;2023-06-22T17:31:55;96833.59;;;32.18;41.92
75008;BME280;63554;48.940;12.050;2023-06-22T17:36:02;96843.13;;;32.13;41.42
75008;BME280;63554;48.940;12.050;2023-06-22T17:40:13;96844.84;;;31.98;42.81
75008;BME280;63554;48.940;12.050;2023-06-22T17:44:18;96832.19;;;31.85;45.13
75008;BME280;63554;48.940;12.050;2023-06-22T17:48:22;96818.34;;;31.49;46.43
75008;BME280;63554;48.940;12.050;2023-06-22T17:52:26;96837.78;;;31.23;46.56
75008;BME280;63554;48.940;12.050;2023-06-22T17:56:29;96852.41;;;30.97;47.20
75008;BME280;63554;48.940;12.050;2023-06-22T18:00:32;96860.81;;;30.81;48.12
75008;BME280;63554;48.940;12.050;2023-06-22T18:04:36;96881.06;;;30.58;49.69
75008;BME280;63554;48.940;12.050;2023-06-22T18:08:39;96889.63;;;30.33;50.33
75008;BME280;63554;48.940;12.050;2023-06-22T18:12:43;96888.25;;;30.11;50.10
75008;BME280;63554;48.940;12.050;2023-06-22T18:16:49;96890.03;;;29.88;51.39
75008;BME280;63554;48.940;12.050;2023-06-22T18:20:54;96895.25;;;29.61;52.95
75008;BME280;63554;48.940;12.050;2023-06-22T18:24:59;96877.31;;;29.46;51.66
75008;BME280;63554;48.940;12.050;2023-06-22T18:29:04;96873.59;;;29.42;51.05
75008;BME280;63554;48.940;12.050;2023-06-22T18:33:08;96875.00;;;29.36;51.11
75008;BME280;63554;48.940;12.050;2023-06-22T18:37:13;96884.81;;;29.30;51.50
75008;BME280;63554;48.940;12.050;2023-06-22T18:41:21;96899.00;;;29.25;51.95
75008;BME280;63554;48.940;12.050;2023-06-22T18:45:26;96922.34;;;29.20;54.11
75008;BME280;63554;48.940;12.050;2023-06-22T18:49:31;96935.63;;;28.86;54.11
75008;BME280;63554;48.940;12.050;2023-06-22T18:53:35;96955.47;;;28.60;56.45
75008;BME280;63554;48.940;12.050;2023-06-22T18:57:38;96959.72;;;28.45;56.81
75008;BME280;63554;48.940;12.050;2023-06-22T19:01:41;96965.03;;;28.38;57.93
75008;BME280;63554;48.940;12.050;2023-06-22T19:05:43;96984.50;;;28.26;60.35
75008;BME280;63554;48.940;12.050;2023-06-22T19:14:35;97008.81;;;27.41;66.55
75008;BME280;63554;48.940;12.050;2023-06-22T19:18:39;96999.28;;;26.91;67.63
75008;BME280;63554;48.940;12.050;2023-06-22T19:22:43;96907.88;;;26.48;70.92
75008;BME280;63554;48.940;12.050;2023-06-22T19:26:50;96877.50;;;25.57;73.70
75008;BME280;63554;48.940;12.050;2023-06-22T19:30:56;96786.50;;;24.51;79.90
75008;BME280;63554;48.940;12.050;2023-06-22T19:34:59;96779.53;;;23.96;80.42
75008;BME280;63554;48.940;12.050;2023-06-22T19:39:04;96754.03;;;23.67;81.53
75008;BME280;63554;48.940;12.050;2023-06-22T19:43:07;96743.47;;;23.61;81.25
75008;BME280;63554;48.940;12.050;2023-06-22T19:47:11;96745.25;;;24.05;79.39
75008;BME280;63554;48.940;12.050;2023-06-22T19:51:14;96727.88;;;24.31;77.49
75008;BME280;63554;48.940;12.050;2023-06-22T19:55:16;96706.91;;;24.39;77.60
75008;BME280;63554;48.940;12.050;2023-06-22T19:59:22;96686.38;;;23.96;79.39
75008;BME280;63554;48.940;12.050;2023-06-22T20:03:28;96704.34;;;23.76;80.64
75008;BME280;63554;48.940;12.050;2023-06-22T20:07:34;96629.72;;;23.67;77.57
75008;BME280;63554;48.940;12.050;2023-06-22T20:11:38;96598.06;;;23.82;76.63
75008;BME280;63554;48.940;12.050;2023-06-22T20:15:42;96634.00;;;24.00;73.30
75008;BME280;63554;48.940;12.050;2023-06-22T20:19:53;96668.81;;;24.36;71.05
75008;BME280;63554;48.940;12.050;2023-06-22T20:24:02;96754.22;;;24.37;73.00
75008;BME280;63554;48.940;12.050;2023-06-22T20:28:08;96809.84;;;24.18;74.95
75008;BME280;63554;48.940;12.050;2023-06-22T20:32:13;96883.13;;;23.98;75.33
75008;BME280;63554;48.940;12.050;2023-06-22T20:36:18;96999.69;;;23.92;75.15
75008;BME280;63554;48.940;12.050;2023-06-22T20:40:21;97069.16;;;24.21;72.82
75008;BME280;63554;48.940;12.050;2023-06-22T20:44:27;97106.06;;;24.48;69.53
75008;BME280;63554;48.940;12.050;2023-06-22T20:48:30;97148.91;;;24.28;66.41
75008;BME280;63554;48.940;12.050;2023-06-22T20:52:40;97197.38;;;23.61;62.77
75008;BME280;63554;48.940;12.050;2023-06-22T20:56:43;97226.22;;;23.14;63.47
75008;BME280;63554;48.940;12.050;2023-06-22T21:00:46;97046.63;;;22.91;63.86
75008;BME280;63554;48.940;12.050;2023-06-22T21:04:49;97151.72;;;22.48;63.58
75008;BME280;63554;48.940;12.050;2023-06-22T21:08:54;97100.09;;;21.45;68.74
75008;BME280;63554;48.940;12.050;2023-06-22T21:12:57;97148.59;;;20.68;74.62
75008;BME280;63554;48.940;12.050;2023-06-22T21:17:00;97134.84;;;20.34;76.84
75008;BME280;63554;48.940;12.050;2023-06-22T21:21:02;97141.50;;;20.28;79.51
75008;BME280;63554;48.940;12.050;2023-06-22T21:25:08;97198.22;;;20.13;77.17